Main page
METAR-TAF:

METAR-TAF

Airports :

Bou Saada Airport

Bou Saâda, Algeria

latitude: 35-20N, longitude: 004-12E, elevation: 461 m

Current weather observation

The report was made 35 minutes ago, at 10:00 UTC
Wind 7 kt from the North
Temperature 14°C
Humidity 41%
Pressure 1018 hPa
Visibility: 8000 m
Few clouds at a height of 3000 ft
Broken clouds at a height of 10000 ft

METAR: DAAD 061000Z 35007KT 8000 FEW030 BKN100 14/01 Q1018

Time: 11:35 (10:35 UTC)

Forecast

The report was made 2 hours and 35 minutes ago, at 08:00 UTC
Forecast valid from 06 at 09 UTC to 06 at 18 UTC
Wind 9 kt from the North/Northwest
Visibility: 8000 m
Few clouds at a height of 3000 ft
Scattered clouds at a height of 10000 ft

TAF: DAAD 060800Z 0609/0618 34009KT 8000 FEW030 SCT100

Weather observations and forecasts of more than 4000 airports (METAR and TAF reports).

The available stations are represented by yellow and red dots on the map.

Hover mouse over dot to see the name of the station.

Then click to see weather observations and forecasts.

To change the map : click on the green buttons with a black cross to zoom in, on the green button with a dash to zoom out, or on the green arrows for adjacent maps.


METAR-TAF: